createdAt,value
2022-09-27T00:01:02.211Z,11.68
2022-09-27T00:03:31.013Z,12.93
2022-09-27T00:06:06.133Z,12.55
2022-09-27T00:08:35.572Z,11.73
2022-09-27T00:11:04.401Z,14.68
2022-09-27T00:13:32.821Z,14.85
2022-09-27T00:16:01.962Z,12.27
2022-09-27T00:18:31.331Z,12.45
2022-09-27T00:21:10.383Z,12.63
2022-09-27T00:23:39.283Z,12.93
2022-09-27T00:26:08.799Z,14.00
2022-09-27T00:28:37.320Z,11.68
2022-09-27T00:31:06.201Z,12.38
2022-09-27T00:33:34.708Z,11.55
2022-09-27T00:36:08.172Z,11.48
2022-09-27T00:38:36.686Z,12.82
2022-09-27T00:41:05.657Z,11.98
2022-09-27T00:43:46.676Z,10.90
2022-09-27T00:46:18.493Z,11.77
2022-09-27T00:48:47.888Z,11.20
2022-09-27T00:51:18.080Z,11.90
2022-09-27T00:53:51.595Z,11.88
2022-09-27T00:56:21.823Z,12.55
2022-09-27T00:58:54.178Z,13.55
2022-09-27T01:01:22.877Z,10.88
2022-09-27T01:03:55.977Z,13.43
2022-09-27T01:06:25.783Z,12.52
2022-09-27T01:08:54.233Z,13.35
2022-09-27T01:11:42.226Z,11.30
2022-09-27T01:14:36.172Z,10.27
2022-09-27T01:17:11.966Z,13.15
2022-09-27T01:20:07.930Z,11.70
2022-09-27T01:22:38.939Z,10.80
2022-09-27T01:25:22.978Z,12.07
2022-09-27T01:28:24.579Z,11.55
2022-09-27T01:30:57.591Z,10.88
2022-09-27T01:33:36.723Z,11.13
2022-09-27T01:36:13.104Z,12.38
2022-09-27T01:38:48.881Z,11.65
2022-09-27T01:41:29.364Z,9.35
2022-09-27T01:44:01.866Z,11.88
2022-09-27T01:46:34.878Z,11.35
2022-09-27T01:49:06.989Z,11.00
2022-09-27T01:51:38.956Z,9.98
2022-09-27T01:54:07.567Z,10.98
2022-09-27T01:56:38.731Z,12.00
2022-09-27T01:59:09.590Z,12.60
2022-09-27T02:01:39.809Z,12.88
2022-09-27T02:04:10.294Z,10.77
2022-09-27T02:06:41.049Z,12.00
2022-09-27T02:09:11.979Z,10.98
2022-09-27T02:11:42.720Z,10.63
2022-09-27T02:14:16.186Z,11.07
2022-09-27T02:16:50.203Z,10.27
2022-09-27T02:19:26.875Z,12.35
2022-09-27T02:22:01.023Z,10.48
2022-09-27T02:24:34.604Z,10.70
2022-09-27T02:27:06.036Z,11.18
2022-09-27T02:29:36.508Z,11.63
2022-09-27T02:32:06.497Z,11.73
2022-09-27T02:34:35.688Z,12.40
2022-09-27T02:37:04.126Z,10.85
2022-09-27T02:39:32.610Z,11.18
2022-09-27T02:42:01.385Z,11.20
2022-09-27T02:44:29.938Z,12.02
2022-09-27T02:47:26.542Z,12.15
2022-09-27T02:50:26.327Z,12.07
2022-09-27T02:53:00.344Z,12.80
2022-09-27T02:55:34.150Z,11.63
2022-09-27T02:58:08.796Z,11.88
2022-09-27T03:00:41.999Z,11.10
2022-09-27T03:03:15.481Z,10.95
2022-09-27T03:05:45.355Z,13.07
2022-09-27T03:08:13.910Z,10.95
2022-09-27T03:10:42.701Z,10.77
2022-09-27T03:13:11.162Z,11.52
2022-09-27T03:15:39.727Z,12.18
2022-09-27T03:18:08.205Z,12.00
2022-09-27T03:20:38.060Z,11.25
2022-09-27T03:23:06.485Z,13.00
2022-09-27T03:25:34.987Z,12.20
2022-09-27T03:28:03.680Z,10.80
2022-09-27T03:30:32.331Z,11.52
2022-09-27T03:33:00.849Z,11.25
2022-09-27T03:35:29.308Z,12.93
2022-09-27T03:37:59.264Z,11.18
2022-09-27T03:40:27.844Z,10.88
2022-09-27T03:42:56.606Z,12.10
2022-09-27T03:45:25.295Z,12.13
2022-09-27T03:47:54.290Z,11.32
2022-09-27T03:50:22.785Z,11.07
2022-09-27T03:52:51.196Z,11.82
2022-09-27T03:55:21.128Z,10.32
2022-09-27T03:57:49.636Z,11.55
2022-09-27T04:00:18.390Z,11.90
2022-09-27T04:02:46.931Z,11.80
2022-09-27T04:05:16.183Z,10.55
2022-09-27T04:07:49.560Z,10.85
2022-09-27T04:10:18.340Z,9.65
2022-09-27T04:12:48.144Z,10.75
2022-09-27T04:15:16.960Z,10.70
2022-09-27T04:17:45.383Z,10.05
2022-09-27T04:20:13.981Z,10.45
2022-09-27T04:22:44.155Z,10.75
2022-09-27T04:25:12.998Z,10.60
2022-09-27T04:27:46.945Z,10.70
2022-09-27T04:30:15.621Z,10.93
2022-09-27T04:32:44.314Z,10.75
2022-09-27T04:35:31.126Z,10.63
2022-09-27T04:37:59.651Z,12.05
2022-09-27T04:40:28.401Z,10.40
2022-09-27T04:42:58.292Z,10.93
2022-09-27T04:45:26.815Z,9.43
2022-09-27T04:47:55.332Z,10.85
2022-09-27T04:50:23.742Z,10.60
2022-09-27T04:52:53.745Z,10.98
2022-09-27T04:55:22.605Z,11.05
2022-09-27T04:57:51.235Z,10.68
2022-09-27T05:00:21.336Z,9.68
2022-09-27T05:02:50.010Z,9.38
2022-09-27T05:05:18.736Z,9.82
2022-09-27T05:07:47.307Z,10.20
2022-09-27T05:10:15.715Z,9.60
2022-09-27T05:12:44.204Z,12.15
2022-09-27T05:15:12.996Z,9.75
2022-09-27T05:17:42.941Z,9.85
2022-09-27T05:20:11.537Z,10.02
2022-09-27T05:22:41.471Z,9.40
2022-09-27T05:25:10.738Z,9.77
2022-09-27T05:27:39.428Z,9.48
2022-09-27T05:30:09.122Z,12.10
2022-09-27T05:32:39.176Z,10.00
2022-09-27T05:35:10.073Z,9.05
2022-09-27T05:37:38.694Z,11.95
2022-09-27T05:40:22.679Z,10.70
2022-09-27T05:42:57.378Z,11.65
2022-09-27T05:45:26.437Z,9.88
2022-09-27T05:47:56.118Z,10.98
2022-09-27T05:50:26.679Z,9.90
2022-09-27T05:52:55.453Z,10.20
2022-09-27T05:55:23.957Z,9.77
2022-09-27T05:57:59.273Z,10.50
2022-09-27T06:00:28.490Z,9.95
2022-09-27T06:02:58.936Z,10.98
2022-09-27T06:05:31.251Z,9.80
2022-09-27T06:08:00.877Z,10.32
2022-09-27T06:10:29.848Z,10.43
2022-09-27T06:13:02.581Z,8.85
2022-09-27T06:15:31.516Z,8.45
2022-09-27T06:18:05.273Z,9.27
2022-09-27T06:20:35.437Z,8.73
2022-09-27T06:23:08.610Z,13.30
2022-09-27T06:25:37.738Z,17.88
2022-09-27T06:28:06.580Z,22.23
2022-09-27T06:30:35.410Z,13.57
2022-09-27T06:33:04.477Z,22.80
2022-09-27T06:35:36.190Z,18.52
2022-09-27T06:38:07.172Z,20.80
2022-09-27T06:40:35.887Z,27.85
2022-09-27T06:43:04.874Z,24.77
2022-09-27T06:45:35.337Z,26.60
2022-09-27T06:48:04.066Z,21.73
2022-09-27T06:50:34.500Z,20.90
2022-09-27T06:53:03.268Z,15.68
2022-09-27T06:55:31.737Z,17.75
2022-09-27T06:58:18.842Z,17.15
2022-09-27T07:00:49.828Z,14.52
2022-09-27T07:03:18.436Z,13.30
2022-09-27T07:05:56.923Z,16.70
2022-09-27T07:08:27.525Z,15.88
2022-09-27T07:10:56.788Z,12.77
2022-09-27T07:13:26.776Z,14.90
2022-09-27T07:15:55.427Z,12.32
2022-09-27T07:18:24.026Z,14.60
2022-09-27T07:20:59.385Z,12.45
2022-09-27T07:23:29.409Z,15.63
2022-09-27T07:25:58.141Z,8.70
2022-09-27T07:28:26.726Z,11.95
2022-09-27T07:30:56.685Z,11.27
2022-09-27T07:33:25.668Z,13.40
2022-09-27T07:35:55.536Z,9.60
2022-09-27T07:38:25.346Z,11.70
2022-09-27T07:40:54.151Z,12.90
2022-09-27T07:43:22.812Z,11.05
2022-09-27T07:45:51.399Z,10.77
2022-09-27T07:48:19.851Z,12.98
2022-09-27T07:50:49.541Z,10.38
2022-09-27T07:53:19.556Z,8.88
2022-09-27T07:55:53.081Z,10.35
2022-09-27T07:58:21.979Z,10.85
2022-09-27T08:00:50.532Z,8.70
2022-09-27T08:03:21.828Z,10.35
2022-09-27T08:05:50.660Z,10.30
2022-09-27T08:08:20.479Z,8.98
2022-09-27T08:10:49.106Z,10.27
2022-09-27T08:13:20.405Z,11.52
2022-09-27T08:15:52.526Z,21.98
2022-09-27T08:18:22.163Z,68.22
2022-09-27T08:20:50.782Z,76.85
2022-09-27T08:23:21.800Z,93.65
2022-09-27T08:25:54.342Z,102.00
2022-09-27T08:28:23.672Z,86.97
2022-09-27T08:30:52.439Z,105.78
2022-09-27T08:33:21.448Z,114.72
2022-09-27T08:35:50.031Z,140.27
2022-09-27T08:38:19.115Z,101.53
2022-09-27T08:40:57.588Z,128.40
2022-09-27T08:43:35.687Z,141.07
2022-09-27T08:46:12.509Z,117.22
2022-09-27T08:48:40.981Z,118.78
2022-09-27T08:51:12.878Z,103.55
2022-09-27T08:53:43.915Z,89.40
2022-09-27T08:56:13.865Z,94.68
2022-09-27T08:58:46.663Z,108.70
2022-09-27T09:01:16.973Z,100.22
2022-09-27T09:03:48.234Z,87.05
2022-09-27T09:06:21.238Z,84.95
2022-09-27T09:09:01.260Z,83.13
2022-09-27T09:11:57.775Z,80.82
2022-09-27T09:14:50.907Z,83.43
2022-09-27T09:17:28.932Z,56.78
2022-09-27T09:20:17.282Z,56.67
2022-09-27T09:22:59.602Z,57.42
2022-09-27T09:25:32.168Z,53.45
2022-09-27T09:28:13.297Z,55.08
2022-09-27T09:30:46.430Z,51.80
2022-09-27T09:33:23.204Z,50.28
2022-09-27T09:35:59.003Z,47.78
2022-09-27T09:38:34.546Z,59.42
2022-09-27T09:41:06.579Z,51.47
2022-09-27T09:43:39.819Z,46.38
2022-09-27T09:46:12.580Z,41.30
2022-09-27T09:48:44.476Z,42.63
2022-09-27T09:51:17.805Z,46.08
2022-09-27T09:53:50.865Z,42.40
2022-09-27T09:56:24.479Z,41.75
2022-09-27T09:58:57.076Z,44.50
2022-09-27T10:01:28.774Z,39.22
2022-09-27T10:03:57.462Z,36.83
2022-09-27T10:06:26.579Z,37.78
2022-09-27T10:08:55.907Z,40.90
2022-09-27T10:11:27.297Z,33.08
2022-09-27T10:13:57.233Z,30.00
2022-09-27T10:16:28.925Z,31.65
2022-09-27T10:19:01.518Z,32.08
2022-09-27T10:21:31.165Z,28.45
2022-09-27T10:24:13.539Z,26.80
2022-09-27T10:26:47.106Z,32.97
2022-09-27T10:29:20.984Z,28.02
2022-09-27T10:31:50.461Z,26.27
2022-09-27T10:34:27.065Z,26.17
2022-09-27T10:37:22.272Z,23.63
2022-09-27T10:39:53.024Z,25.10
2022-09-27T10:42:23.769Z,25.05
2022-09-27T10:44:54.248Z,24.67
2022-09-27T10:47:23.834Z,21.98
2022-09-27T10:49:53.004Z,23.42
2022-09-27T10:52:22.748Z,20.60
2022-09-27T10:54:55.874Z,23.23
2022-09-27T10:57:26.805Z,22.35
2022-09-27T10:59:57.715Z,18.92
2022-09-27T11:02:29.666Z,20.92
2022-09-27T11:05:13.945Z,20.38
2022-09-27T11:07:50.509Z,16.77
2022-09-27T11:10:27.858Z,17.90
2022-09-27T11:13:12.679Z,20.38
2022-09-27T11:15:58.556Z,17.08
2022-09-27T11:18:32.270Z,14.93
2022-09-27T11:21:05.747Z,15.02
2022-09-27T11:23:52.567Z,15.73
2022-09-27T11:26:41.925Z,14.65
2022-09-27T11:29:22.266Z,13.40
2022-09-27T11:32:05.002Z,17.20
2022-09-27T11:34:44.395Z,12.93
2022-09-27T11:37:19.054Z,15.30
2022-09-27T11:40:02.619Z,11.63
2022-09-27T11:43:06.089Z,11.15
2022-09-27T11:46:10.869Z,12.52
2022-09-27T11:48:51.078Z,10.77
2022-09-27T11:51:32.482Z,12.75
2022-09-27T11:54:15.653Z,11.23
2022-09-27T11:56:50.678Z,11.05
2022-09-27T11:59:47.640Z,12.95
2022-09-27T12:02:32.955Z,11.65
2022-09-27T12:08:04.682Z,8.55
2022-09-27T12:10:33.197Z,12.18
2022-09-27T12:13:02.002Z,9.02
2022-09-27T12:15:34.071Z,9.80
2022-09-27T12:18:10.808Z,9.02
2022-09-27T12:20:39.735Z,8.93
2022-09-27T12:23:13.386Z,9.65
2022-09-27T12:25:42.854Z,8.23
2022-09-27T12:28:15.606Z,7.28
2022-09-27T12:30:49.170Z,7.88
2022-09-27T12:33:22.891Z,7.68
2022-09-27T12:35:54.240Z,7.32
2022-09-27T12:38:27.797Z,8.07
2022-09-27T12:40:58.714Z,7.57
2022-09-27T12:43:28.699Z,6.47
2022-09-27T12:46:03.958Z,7.53
2022-09-27T12:48:38.423Z,7.40
2022-09-27T12:51:09.734Z,6.70
2022-09-27T12:53:55.123Z,7.03
2022-09-27T12:56:36.774Z,8.18
2022-09-27T12:59:42.551Z,6.18
2022-09-27T13:03:25.049Z,8.48
2022-09-27T13:06:33.862Z,6.57
2022-09-27T13:09:32.546Z,6.15
2022-09-27T13:12:05.190Z,6.43
2022-09-27T13:14:37.160Z,6.38
2022-09-27T13:17:06.419Z,7.20
2022-09-27T13:19:44.199Z,5.97
2022-09-27T13:22:37.468Z,6.43
2022-09-27T13:25:55.433Z,5.25
2022-09-27T13:28:36.162Z,5.05
2022-09-27T13:31:05.218Z,6.28
2022-09-27T13:33:44.346Z,5.70
2022-09-27T13:36:33.097Z,5.50
2022-09-27T13:39:21.267Z,5.13
2022-09-27T13:42:24.080Z,5.38
2022-09-27T13:45:03.721Z,6.05
2022-09-27T13:47:36.484Z,5.90
2022-09-27T13:50:19.014Z,5.55
2022-09-27T13:52:59.067Z,5.13
2022-09-27T13:55:47.321Z,5.25
2022-09-27T13:58:40.345Z,5.05
2022-09-27T14:01:17.325Z,4.65
2022-09-27T14:03:46.008Z,5.05
2022-09-27T14:06:16.846Z,5.10
2022-09-27T14:08:47.501Z,4.55
2022-09-27T14:11:18.583Z,5.18
2022-09-27T14:13:48.614Z,4.93
2022-09-27T14:16:18.515Z,4.57
2022-09-27T14:18:50.892Z,5.00
2022-09-27T14:21:27.875Z,4.50
2022-09-27T14:24:11.235Z,4.93
2022-09-27T14:26:39.868Z,4.70
2022-09-27T14:29:18.612Z,5.15
2022-09-27T14:31:49.288Z,5.40
2022-09-27T14:34:17.728Z,7.55
2022-09-27T14:37:03.856Z,12.48
2022-09-27T14:39:33.435Z,18.67
2022-09-27T14:42:02.014Z,20.30
2022-09-27T14:44:32.553Z,23.08
2022-09-27T14:47:10.805Z,21.25
2022-09-27T14:49:48.225Z,21.42
2022-09-27T14:52:24.356Z,17.55
2022-09-27T14:55:03.616Z,17.58
2022-09-27T14:57:34.260Z,23.88
2022-09-27T15:00:17.819Z,19.65
2022-09-27T15:02:46.476Z,23.02
2022-09-27T15:05:16.485Z,21.30
2022-09-27T15:07:45.202Z,22.63
2022-09-27T15:10:17.971Z,19.23
2022-09-27T15:12:48.875Z,19.67
2022-09-27T15:15:22.681Z,22.58
2022-09-27T15:17:51.307Z,20.63
2022-09-27T15:20:31.033Z,21.35
2022-09-27T15:23:03.862Z,21.70
2022-09-27T15:25:34.819Z,19.70
2022-09-27T15:28:05.553Z,19.52
2022-09-27T15:30:40.483Z,20.00
2022-09-27T15:33:20.181Z,18.65
2022-09-27T15:35:51.249Z,16.75
2022-09-27T15:38:28.802Z,22.45
2022-09-27T15:41:00.897Z,21.00
2022-09-27T15:43:31.347Z,18.90
2022-09-27T15:46:03.750Z,21.45
2022-09-27T15:48:33.408Z,19.35
2022-09-27T15:51:03.186Z,16.95
2022-09-27T15:53:48.694Z,18.25
2022-09-27T15:56:17.546Z,18.85
2022-09-27T15:58:46.157Z,21.80
2022-09-27T16:01:21.343Z,16.05
2022-09-27T16:03:51.066Z,18.60
2022-09-27T16:06:19.658Z,16.33
2022-09-27T16:08:48.108Z,15.88
2022-09-27T16:11:17.438Z,14.95
2022-09-27T16:13:46.015Z,17.38
2022-09-27T16:16:17.403Z,16.25
2022-09-27T16:18:47.565Z,14.93
2022-09-27T16:21:16.257Z,14.93
2022-09-27T16:23:44.781Z,20.80
2022-09-27T16:26:13.892Z,17.35
2022-09-27T16:28:42.936Z,15.63
2022-09-27T16:31:12.366Z,16.40
2022-09-27T16:33:40.943Z,13.10
2022-09-27T16:36:16.140Z,14.45
2022-09-27T16:38:44.657Z,11.65
2022-09-27T16:41:13.186Z,14.52
2022-09-27T16:43:41.640Z,18.05
2022-09-27T16:46:11.892Z,18.73
2022-09-27T16:48:40.932Z,17.50
2022-09-27T16:51:30.703Z,16.38
2022-09-27T16:53:59.445Z,16.10
2022-09-27T16:56:28.741Z,12.75
2022-09-27T16:58:57.201Z,136.27
2022-09-27T17:01:25.922Z,103.05
2022-09-27T17:03:57.472Z,49.03
2022-09-27T17:06:28.642Z,40.08
2022-09-27T17:08:57.131Z,40.80
2022-09-27T17:11:25.913Z,26.63
2022-09-27T17:13:57.609Z,31.05
2022-09-27T17:16:26.687Z,24.25
2022-09-27T17:18:55.275Z,28.17
2022-09-27T17:21:24.420Z,32.47
2022-09-27T17:23:54.621Z,21.95
2022-09-27T17:26:24.336Z,19.20
2022-09-27T17:28:55.113Z,21.88
2022-09-27T17:31:23.701Z,25.88
2022-09-27T17:33:57.414Z,37.15
2022-09-27T17:36:28.410Z,29.35
2022-09-27T17:38:59.721Z,34.53
2022-09-27T17:41:29.048Z,17.35
2022-09-27T17:43:59.010Z,17.20
2022-09-27T17:46:29.178Z,17.52
2022-09-27T17:49:15.705Z,18.35
2022-09-27T17:51:46.636Z,23.92
2022-09-27T17:54:16.916Z,26.95
2022-09-27T17:56:45.746Z,24.00
2022-09-27T17:59:15.991Z,22.17
2022-09-27T18:01:44.839Z,25.15
2022-09-27T18:04:14.925Z,31.08
2022-09-27T18:06:44.580Z,19.45
2022-09-27T18:09:16.308Z,16.73
2022-09-27T18:11:45.593Z,27.17
2022-09-27T18:14:14.732Z,21.98
2022-09-27T18:16:44.288Z,15.95
2022-09-27T18:19:14.912Z,30.25
2022-09-27T18:21:43.648Z,29.75
2022-09-27T18:24:14.481Z,23.60
2022-09-27T18:26:46.811Z,21.65
2022-09-27T18:29:17.074Z,20.38
2022-09-27T18:31:48.998Z,19.33
2022-09-27T18:34:18.393Z,22.70
2022-09-27T18:36:47.471Z,16.80
2022-09-27T18:39:19.436Z,27.88
2022-09-27T18:41:50.018Z,15.93
2022-09-27T18:44:19.299Z,20.85
2022-09-27T18:46:48.165Z,23.48
2022-09-27T18:49:17.021Z,20.95
2022-09-27T18:51:47.355Z,22.52
2022-09-27T18:54:17.642Z,13.55
2022-09-27T18:56:50.804Z,19.40
2022-09-27T18:59:21.006Z,14.95
2022-09-27T19:01:49.938Z,20.90
2022-09-27T19:04:24.237Z,19.40
2022-09-27T19:06:54.910Z,24.38
2022-09-27T19:09:24.798Z,27.52
2022-09-27T19:11:54.894Z,20.50
2022-09-27T19:14:23.797Z,31.48
2022-09-27T19:16:52.853Z,22.02
2022-09-27T19:19:21.641Z,25.00
2022-09-27T19:21:50.220Z,31.35
2022-09-27T19:24:19.043Z,28.88
2022-09-27T19:26:47.729Z,34.35
2022-09-27T19:29:17.691Z,29.92
2022-09-27T19:31:46.455Z,30.90
2022-09-27T19:34:15.485Z,28.17
2022-09-27T19:36:44.009Z,30.33
2022-09-27T19:39:12.778Z,25.00
2022-09-27T19:41:41.259Z,26.27
2022-09-27T19:44:09.844Z,24.25
2022-09-27T19:46:40.208Z,23.23
2022-09-27T19:49:08.865Z,27.33
2022-09-27T19:51:37.522Z,23.42
2022-09-27T19:54:06.752Z,22.58
2022-09-27T19:56:35.257Z,19.85
2022-09-27T19:59:07.066Z,20.42
2022-09-27T20:01:36.279Z,18.60
2022-09-27T20:04:06.208Z,18.65
2022-09-27T20:06:34.766Z,18.70
2022-09-27T20:09:04.289Z,18.15
2022-09-27T20:11:34.113Z,18.00
2022-09-27T20:14:03.215Z,16.95
2022-09-27T20:16:31.781Z,16.98
2022-09-27T20:19:01.062Z,15.48
2022-09-27T20:21:32.838Z,13.00
2022-09-27T20:24:02.042Z,15.20
2022-09-27T20:26:32.090Z,15.25
2022-09-27T20:29:01.621Z,14.73
2022-09-27T20:31:33.017Z,14.18
2022-09-27T20:34:01.713Z,14.75
2022-09-27T20:36:32.942Z,12.55
2022-09-27T20:39:03.620Z,16.02
2022-09-27T20:41:33.241Z,12.00
2022-09-27T20:44:03.607Z,12.30
2022-09-27T20:46:32.757Z,12.88
2022-09-27T20:49:03.318Z,12.82
2022-09-27T20:51:34.239Z,13.20
2022-09-27T20:54:02.763Z,13.98
2022-09-27T20:56:32.639Z,14.13
2022-09-27T20:59:02.857Z,11.73
2022-09-27T21:01:32.055Z,13.45
2022-09-27T21:04:01.731Z,13.18
2022-09-27T21:06:33.939Z,9.77
2022-09-27T21:09:06.647Z,10.73
2022-09-27T21:11:35.563Z,14.73
2022-09-27T21:14:04.000Z,10.95
2022-09-27T21:16:35.650Z,13.00
2022-09-27T21:19:04.214Z,11.30
2022-09-27T21:21:33.960Z,10.57
2022-09-27T21:24:03.169Z,11.80
2022-09-27T21:26:32.803Z,11.05
2022-09-27T21:29:04.070Z,13.90
2022-09-27T21:31:33.258Z,14.27
2022-09-27T21:34:03.493Z,13.82
2022-09-27T21:36:34.325Z,14.25
2022-09-27T21:39:03.073Z,11.55
2022-09-27T21:41:31.466Z,11.75
2022-09-27T21:44:00.127Z,9.95
2022-09-27T21:46:29.471Z,12.05
2022-09-27T21:48:59.486Z,12.18
2022-09-27T21:51:29.517Z,13.15
2022-09-27T21:54:00.789Z,10.35
2022-09-27T21:56:30.399Z,11.82
2022-09-27T21:58:58.896Z,9.25
2022-09-27T22:01:29.708Z,9.30
2022-09-27T22:03:58.773Z,9.63
2022-09-27T22:06:28.577Z,8.55
2022-09-27T22:08:59.454Z,10.93
2022-09-27T22:11:29.284Z,11.10
2022-09-27T22:13:58.188Z,10.80
2022-09-27T22:16:27.423Z,10.95
2022-09-27T22:18:57.171Z,9.70
2022-09-27T22:21:27.300Z,9.43
2022-09-27T22:23:56.038Z,9.55
2022-09-27T22:26:27.253Z,9.85
2022-09-27T22:28:55.959Z,10.60
2022-09-27T22:31:24.535Z,7.88
2022-09-27T22:33:54.270Z,9.23
2022-09-27T22:36:22.859Z,8.27
2022-09-27T22:38:51.501Z,8.48
2022-09-27T22:41:20.366Z,7.22
2022-09-27T22:43:50.182Z,8.77
2022-09-27T22:46:19.649Z,7.72
2022-09-27T22:48:49.072Z,10.48
2022-09-27T22:51:17.638Z,12.55
2022-09-27T22:53:46.152Z,9.27
2022-09-27T22:56:15.800Z,8.85
2022-09-27T22:58:44.333Z,8.45
2022-09-27T23:01:16.648Z,8.90
2022-09-27T23:03:45.859Z,8.57
2022-09-27T23:06:14.534Z,8.48
2022-09-27T23:08:43.268Z,8.38
2022-09-27T23:11:13.557Z,8.73
2022-09-27T23:13:43.802Z,7.43
2022-09-27T23:16:20.167Z,8.55
2022-09-27T23:18:49.016Z,8.45
2022-09-27T23:21:17.435Z,7.70
2022-09-27T23:23:47.170Z,7.80
2022-09-27T23:26:17.420Z,7.10
2022-09-27T23:28:45.969Z,8.50
2022-09-27T23:31:15.457Z,7.20
2022-09-27T23:33:49.074Z,6.50
2022-09-27T23:36:18.893Z,8.20
2022-09-27T23:38:48.679Z,6.95
2022-09-27T23:41:17.715Z,7.05
2022-09-27T23:43:46.486Z,8.77
2022-09-27T23:46:15.555Z,7.80
2022-09-27T23:48:44.680Z,7.78
2022-09-27T23:51:14.720Z,9.00
2022-09-27T23:53:44.641Z,7.00
2022-09-27T23:56:15.246Z,6.47
2022-09-27T23:58:45.151Z,6.05
